Time;durP1;ratioP1;P1;durP2;ratioP2;P2;SDS_P1;SDS_P2;PMS_P1;PMS_P2;Temp;Humidity;BMP_temperature;BMP_pressure;BME280_temperature;BME280_humidity;BME280_pressure;Samples;Min_cycle;Max_cycle;Signal;HPM_P1;HPM_P2
2022/12/04 00:01:34;;;;;;;36.00;18.90;;;2.10;99.90;;;;;;5048366;28;20495;-63
2022/12/04 00:04:01;;;;;;;43.10;14.83;;;2.10;99.90;;;;;;5054644;28;20429;-61
2022/12/04 00:06:29;;;;;;;42.87;16.00;;;2.10;99.90;;;;;;5054736;28;20451;-61
2022/12/04 00:08:56;;;;;;;38.67;18.13;;;2.10;99.90;;;;;;5054321;28;20542;-62
2022/12/04 00:11:26;;;;;;;33.07;17.90;;;2.10;99.90;;;;;;5054094;28;20440;-63
2022/12/04 00:13:53;;;;;;;34.00;14.50;;;2.10;99.90;;;;;;5055033;28;20432;-62
2022/12/04 00:16:22;;;;;;;32.70;19.40;;;2.10;99.90;;;;;;5054999;28;20448;-60
2022/12/04 00:18:52;;;;;;;47.37;16.47;;;2.10;99.90;;;;;;5054920;28;20488;-61
2022/12/04 00:21:20;;;;;;;37.00;17.37;;;2.10;99.90;;;;;;5053523;28;20440;-64
2022/12/04 00:23:47;;;;;;;44.73;16.60;;;2.10;99.90;;;;;;5054325;28;20468;-62
2022/12/04 00:26:16;;;;;;;26.57;17.27;;;2.10;99.90;;;;;;5048096;28;20451;-57
2022/12/04 00:28:43;;;;;;;42.07;18.90;;;2.10;99.90;;;;;;5055398;28;20486;-62
2022/12/04 00:31:12;;;;;;;39.00;15.60;;;2.10;99.90;;;;;;5055043;28;20444;-63
2022/12/04 00:33:40;;;;;;;35.83;17.53;;;2.10;99.90;;;;;;5047684;28;20487;-56
2022/12/04 00:36:10;;;;;;;38.07;16.93;;;2.10;99.90;;;;;;5055762;28;20432;-63
2022/12/04 00:38:38;;;;;;;51.10;18.27;;;2.10;99.90;;;;;;5055972;28;20475;-64
2022/12/04 00:41:05;;;;;;;37.83;18.77;;;2.10;99.90;;;;;;5058782;28;20452;-60
2022/12/04 00:43:33;;;;;;;41.50;19.90;;;2.10;99.90;;;;;;5051813;28;20472;-64
2022/12/04 00:46:00;;;;;;;40.80;18.77;;;2.10;99.90;;;;;;5058940;28;20448;-54
2022/12/04 00:48:27;;;;;;;28.83;16.23;;;2.10;99.90;;;;;;5058581;28;20476;-55
2022/12/04 00:50:54;;;;;;;38.20;19.30;;;2.00;99.90;;;;;;5054367;28;20479;-53
2022/12/04 00:53:22;;;;;;;45.40;17.17;;;2.10;99.90;;;;;;5055743;28;20428;-63
2022/12/04 00:55:49;;;;;;;37.17;15.13;;;2.00;99.90;;;;;;5052316;28;20470;-63
2022/12/04 00:58:16;;;;;;;43.60;22.50;;;2.10;99.90;;;;;;5047464;28;20490;-59
2022/12/04 01:00:43;;;;;;;31.37;18.30;;;2.10;99.90;;;;;;5055606;28;20483;-62
2022/12/04 01:03:10;;;;;;;36.47;16.37;;;2.10;99.90;;;;;;5058907;28;20464;-60
2022/12/04 01:05:42;;;;;;;47.13;17.90;;;2.10;99.90;;;;;;5056696;28;20479;-65
2022/12/04 01:21:07;;;;;;;44.93;23.20;;;2.10;99.90;;;;;;5064190;23;22203;-54
2022/12/04 01:23:34;;;;;;;37.70;16.17;;;2.10;99.90;;;;;;5077405;28;20459;-60
2022/12/04 01:26:01;;;;;;;44.27;18.90;;;2.10;99.90;;;;;;5082392;28;20435;-58
2022/12/04 01:28:28;;;;;;;55.47;19.37;;;2.10;99.90;;;;;;5084685;28;20645;-59
2022/12/04 01:31:02;;;;;;;41.97;18.87;;;2.10;99.90;;;;;;5077267;28;20443;-57
2022/12/04 01:33:30;;;;;;;33.87;18.10;;;2.10;99.90;;;;;;5076829;28;20463;-56
2022/12/04 01:35:59;;;;;;;39.77;18.67;;;2.10;99.90;;;;;;5073370;28;20467;-56
2022/12/04 01:38:27;;;;;;;37.40;19.80;;;2.10;99.90;;;;;;5076826;28;20459;-60
2022/12/04 01:40:54;;;;;;;36.13;18.53;;;2.00;99.90;;;;;;5075795;28;20497;-56
2022/12/04 01:43:23;;;;;;;31.20;17.07;;;2.00;99.90;;;;;;5068583;28;20489;-60
2022/12/04 01:45:52;;;;;;;41.67;20.40;;;2.10;99.90;;;;;;5075309;28;20451;-59
2022/12/04 01:48:29;;;;;;;41.30;17.33;;;2.10;99.90;;;;;;5077343;28;20427;-54
2022/12/04 01:51:01;;;;;;;54.67;20.07;;;2.10;99.90;;;;;;5076077;28;20524;-59
2022/12/04 01:53:31;;;;;;;42.20;20.10;;;2.10;99.90;;;;;;5076724;28;20442;-57
2022/12/04 01:55:58;;;;;;;35.40;19.17;;;2.10;99.90;;;;;;5075550;28;20821;-58
2022/12/04 01:58:29;;;;;;;39.57;17.00;;;2.10;99.90;;;;;;5076101;28;20482;-60
2022/12/04 02:01:01;;;;;;;42.10;20.00;;;2.10;99.90;;;;;;5074831;28;20466;-62
2022/12/04 02:03:29;;;;;;;41.73;17.60;;;2.00;99.90;;;;;;5076724;28;20439;-60
2022/12/04 02:05:57;;;;;;;41.30;18.97;;;2.00;99.90;;;;;;5075834;28;20459;-57
2022/12/04 02:08:26;;;;;;;42.47;17.53;;;2.10;99.90;;;;;;5076811;28;20463;-57
2022/12/04 02:11:05;;;;;;;39.80;19.50;;;2.10;99.90;;;;;;5069343;28;20455;-54
2022/12/04 02:13:40;;;;;;;37.20;19.00;;;2.10;99.90;;;;;;5076430;28;20423;-57
2022/12/04 02:16:13;;;;;;;46.67;16.80;;;2.10;99.90;;;;;;5074926;28;20478;-59
2022/12/04 02:18:51;;;;;;;40.47;19.87;;;2.10;99.90;;;;;;5073907;28;20447;-60
2022/12/04 02:21:23;;;;;;;38.37;18.77;;;2.00;99.90;;;;;;5076361;28;20463;-55
2022/12/04 02:24:09;;;;;;;38.60;17.73;;;2.00;99.90;;;;;;5075619;28;20454;-58
2022/12/04 02:26:50;;;;;;;38.87;16.30;;;2.00;99.90;;;;;;5075031;28;20460;-58
2022/12/04 02:29:28;;;;;;;46.73;20.07;;;2.00;99.90;;;;;;5076802;28;20478;-57
2022/12/04 02:31:59;;;;;;;42.10;18.07;;;2.00;99.90;;;;;;5076251;28;20450;-60
2022/12/04 02:34:33;;;;;;;46.40;21.17;;;2.10;99.90;;;;;;5077150;28;20485;-58
2022/12/04 02:37:04;;;;;;;32.40;16.93;;;2.00;99.90;;;;;;5075323;28;20463;-63
2022/12/04 02:39:38;;;;;;;44.30;17.93;;;2.00;99.90;;;;;;5075499;28;20486;-59
2022/12/04 02:42:11;;;;;;;49.57;20.97;;;2.00;99.90;;;;;;5068316;28;20517;-60
2022/12/04 02:44:46;;;;;;;39.53;16.90;;;2.10;99.90;;;;;;5075440;28;20455;-60
2022/12/04 02:47:18;;;;;;;38.93;16.73;;;2.10;99.90;;;;;;5074707;28;20486;-59
2022/12/04 02:49:49;;;;;;;47.90;20.67;;;2.50;99.90;;;;;;5075019;28;20497;-59
2022/12/04 02:52:22;;;;;;;37.70;17.20;;;2.10;99.90;;;;;;5075920;28;20427;-58
2022/12/04 02:54:54;;;;;;;58.87;25.37;;;2.10;99.90;;;;;;5074549;28;21139;-60
2022/12/04 02:57:24;;;;;;;51.23;16.40;;;2.10;99.90;;;;;;5074677;28;20481;-59
2022/12/04 02:59:56;;;;;;;44.10;21.63;;;2.10;99.90;;;;;;5074439;28;20423;-56
2022/12/04 03:02:28;;;;;;;34.43;15.67;;;2.20;99.90;;;;;;5074449;28;20554;-59
2022/12/04 03:04:57;;;;;;;47.57;19.70;;;2.10;99.90;;;;;;5074821;28;20460;-57
2022/12/04 03:07:34;;;;;;;36.07;15.70;;;2.10;99.90;;;;;;5076066;28;20458;-59
2022/12/04 03:10:05;;;;;;;38.83;18.83;;;2.20;99.90;;;;;;5073599;28;20494;-60
2022/12/04 03:12:40;;;;;;;39.50;18.93;;;2.20;99.90;;;;;;5074788;28;20463;-54
2022/12/04 03:15:15;;;;;;;44.17;20.93;;;2.20;99.90;;;;;;5069445;28;20496;-58
2022/12/04 03:17:47;;;;;;;57.67;22.07;;;2.10;99.90;;;;;;5075409;28;20427;-57
2022/12/04 03:20:15;;;;;;;38.83;16.20;;;2.20;99.90;;;;;;5068886;28;20447;-57
2022/12/04 03:22:46;;;;;;;41.67;19.33;;;2.10;99.90;;;;;;5074888;28;20447;-59
2022/12/04 03:25:15;;;;;;;34.90;15.50;;;2.20;99.90;;;;;;5074058;28;20482;-58
2022/12/04 03:27:53;;;;;;;49.30;21.43;;;2.20;99.90;;;;;;5075649;28;20433;-58
2022/12/04 03:30:22;;;;;;;51.53;21.37;;;2.20;99.90;;;;;;5067545;28;20494;-64
2022/12/04 03:32:55;;;;;;;42.93;17.20;;;2.10;99.90;;;;;;5075311;28;20439;-63
2022/12/04 03:35:26;;;;;;;50.23;20.60;;;2.10;99.90;;;;;;5074957;28;20463;-56
2022/12/04 03:38:00;;;;;;;57.93;23.57;;;2.10;99.90;;;;;;5075010;28;20490;-57
2022/12/04 03:40:34;;;;;;;69.33;22.57;;;2.10;99.90;;;;;;5068586;28;20777;-59
2022/12/04 03:43:05;;;;;;;50.67;20.70;;;2.20;99.90;;;;;;5075027;28;20470;-55
2022/12/04 03:45:41;;;;;;;51.03;20.77;;;2.20;99.90;;;;;;5074297;28;20455;-57
2022/12/04 03:48:16;;;;;;;48.70;15.97;;;2.20;99.90;;;;;;5067871;28;20467;-57
2022/12/04 03:50:51;;;;;;;44.80;17.30;;;2.20;99.90;;;;;;5075029;28;20482;-60
2022/12/04 03:53:23;;;;;;;34.67;14.43;;;2.20;99.90;;;;;;5075986;28;20451;-57
2022/12/04 03:55:56;;;;;;;38.27;19.47;;;2.20;99.90;;;;;;5075317;28;20444;-54
2022/12/04 03:58:28;;;;;;;52.47;19.70;;;2.20;99.90;;;;;;5076740;28;20443;-56
2022/12/04 04:00:57;;;;;;;45.87;20.40;;;2.20;99.90;;;;;;5075047;28;20470;-56
2022/12/04 04:03:32;;;;;;;34.80;16.10;;;2.20;99.90;;;;;;5075386;28;21088;-54
2022/12/04 04:06:04;;;;;;;37.27;16.70;;;2.20;99.90;;;;;;5075058;28;20504;-61
2022/12/04 04:08:37;;;;;;;42.50;19.33;;;2.30;99.90;;;;;;5075568;28;20429;-50
2022/12/04 04:11:10;;;;;;;43.87;19.77;;;2.30;99.90;;;;;;5075775;28;20521;-50
2022/12/04 04:24:56;;;;;;;35.43;17.20;;;2.20;99.90;;;;;;5060412;28;20484;-54
2022/12/04 04:27:23;;;;;;;33.80;17.00;;;2.30;99.90;;;;;;5060335;28;20439;-51
2022/12/04 04:29:51;;;;;;;47.33;17.67;;;2.20;99.90;;;;;;5080405;28;20489;-52
2022/12/04 04:32:25;;;;;;;41.70;17.70;;;2.20;99.90;;;;;;5079821;28;20439;-57
2022/12/04 04:34:58;;;;;;;37.90;15.77;;;2.20;99.90;;;;;;5079716;28;20423;-56
2022/12/04 04:37:35;;;;;;;33.83;18.00;;;2.30;99.90;;;;;;5079642;28;20427;-54
2022/12/04 04:40:12;;;;;;;31.53;15.37;;;2.30;99.90;;;;;;5052922;28;20483;-52
2022/12/04 04:42:46;;;;;;;36.23;17.63;;;2.20;99.90;;;;;;5059783;28;20422;-54
2022/12/04 04:45:17;;;;;;;47.43;18.60;;;2.20;99.90;;;;;;5059579;28;20840;-57
2022/12/04 04:47:50;;;;;;;40.37;17.30;;;2.30;99.90;;;;;;5066853;28;20465;-57
2022/12/04 04:50:18;;;;;;;35.37;17.10;;;2.30;99.90;;;;;;5078837;28;20491;-56
2022/12/04 04:52:50;;;;;;;41.27;18.77;;;2.30;99.90;;;;;;5078300;28;20443;-58
2022/12/04 04:55:19;;;;;;;35.13;15.90;;;2.30;99.90;;;;;;5077895;28;20457;-59
2022/12/04 04:57:46;;;;;;;40.27;17.50;;;2.30;99.90;;;;;;5078085;28;20803;-60
2022/12/04 05:00:16;;;;;;;40.40;16.93;;;2.30;99.90;;;;;;5077757;28;20424;-57
2022/12/04 05:02:43;;;;;;;43.03;18.00;;;2.30;99.90;;;;;;5077510;28;20481;-58
2022/12/04 05:05:12;;;;;;;44.13;15.90;;;2.30;99.90;;;;;;5077200;28;20450;-56
2022/12/04 05:07:39;;;;;;;34.67;17.30;;;2.40;99.90;;;;;;5072439;28;20493;-58
2022/12/04 05:10:08;;;;;;;39.40;20.43;;;2.30;99.90;;;;;;5077330;28;20489;-59
2022/12/04 05:12:35;;;;;;;40.73;15.87;;;2.30;99.90;;;;;;5076572;28;20459;-57
2022/12/04 05:15:05;;;;;;;47.53;19.87;;;2.30;99.90;;;;;;5077419;28;20671;-58
2022/12/04 05:17:34;;;;;;;33.20;17.63;;;2.30;99.90;;;;;;5077566;28;20452;-57
2022/12/04 05:20:00;;;;;;;37.20;17.43;;;2.30;99.90;;;;;;5077693;28;20478;-59
2022/12/04 05:22:31;;;;;;;43.30;19.20;;;2.30;99.90;;;;;;5077333;28;20463;-60
2022/12/04 05:25:02;;;;;;;36.13;16.13;;;2.30;99.90;;;;;;5077592;28;20459;-59
2022/12/04 05:27:29;;;;;;;48.73;20.10;;;2.30;99.90;;;;;;5077082;28;20494;-57
2022/12/04 05:29:58;;;;;;;33.17;15.43;;;2.30;99.90;;;;;;5077829;28;20486;-59
2022/12/04 05:32:27;;;;;;;48.33;18.73;;;2.30;99.90;;;;;;5077743;28;20463;-61
2022/12/04 05:34:55;;;;;;;48.03;17.23;;;2.40;99.90;;;;;;5077166;28;20435;-55
2022/12/04 05:37:22;;;;;;;48.13;17.83;;;2.40;99.90;;;;;;5076861;28;20454;-58
2022/12/04 05:39:50;;;;;;;41.53;18.50;;;2.40;99.90;;;;;;5077754;28;20466;-57
2022/12/04 05:42:17;;;;;;;54.47;17.00;;;2.40;99.90;;;;;;5077384;28;20486;-57
2022/12/04 05:44:44;;;;;;;30.30;15.23;;;2.40;99.90;;;;;;5077270;28;20444;-56
2022/12/04 05:47:11;;;;;;;53.03;19.83;;;2.40;99.90;;;;;;5077315;28;20490;-56
2022/12/04 05:49:38;;;;;;;38.30;17.73;;;2.40;99.90;;;;;;5077670;28;20431;-56
2022/12/04 05:52:06;;;;;;;43.47;18.40;;;2.40;99.90;;;;;;5077214;28;20492;-61
2022/12/04 05:54:33;;;;;;;50.83;20.13;;;2.40;99.90;;;;;;5076911;28;20443;-60
2022/12/04 05:57:01;;;;;;;36.40;17.80;;;2.40;99.90;;;;;;5076787;28;20459;-57
2022/12/04 05:59:28;;;;;;;40.13;19.40;;;2.40;99.90;;;;;;5076613;28;20474;-61
2022/12/04 06:01:55;;;;;;;43.00;17.20;;;2.40;99.90;;;;;;5076724;28;20459;-58
2022/12/04 06:04:22;;;;;;;37.80;16.03;;;2.40;99.90;;;;;;5076684;28;20468;-60
2022/12/04 06:06:49;;;;;;;41.53;17.40;;;2.40;99.90;;;;;;5076214;28;20483;-62
2022/12/04 06:09:16;;;;;;;42.47;16.37;;;2.40;99.90;;;;;;5075195;28;20431;-59
2022/12/04 06:11:44;;;;;;;37.23;16.30;;;2.40;99.90;;;;;;5072877;28;20498;-60
2022/12/04 06:14:14;;;;;;;48.10;19.87;;;2.40;99.90;;;;;;5076250;28;20455;-55
2022/12/04 06:16:44;;;;;;;30.23;15.50;;;2.40;99.90;;;;;;5056303;28;20473;-59
2022/12/04 06:19:13;;;;;;;36.37;16.00;;;2.50;99.90;;;;;;5055868;28;20424;-56
2022/12/04 06:21:42;;;;;;;43.30;15.60;;;2.50;99.90;;;;;;5075955;28;20459;-58
2022/12/04 06:24:12;;;;;;;39.93;17.90;;;2.50;99.90;;;;;;5076364;28;20466;-59
2022/12/04 06:26:39;;;;;;;40.23;15.20;;;2.40;99.90;;;;;;5076091;28;20443;-54
2022/12/04 06:29:06;;;;;;;36.30;16.67;;;2.40;99.90;;;;;;5076350;28;20443;-58
2022/12/04 06:31:35;;;;;;;46.57;18.97;;;2.40;99.90;;;;;;5075641;28;20459;-56
2022/12/04 06:34:02;;;;;;;36.63;16.17;;;2.40;99.90;;;;;;5075259;28;20523;-59
2022/12/04 06:36:29;;;;;;;40.83;19.53;;;2.50;99.90;;;;;;5074696;28;20491;-59
2022/12/04 06:38:56;;;;;;;36.63;17.07;;;2.50;99.90;;;;;;5076921;28;20463;-56
2022/12/04 06:41:25;;;;;;;45.00;20.30;;;2.50;99.90;;;;;;5077224;28;20466;-62
2022/12/04 06:43:52;;;;;;;40.20;15.33;;;2.50;99.90;;;;;;5077885;28;20472;-60
2022/12/04 06:46:21;;;;;;;32.10;16.00;;;2.50;99.90;;;;;;5078047;28;20439;-62
2022/12/04 06:48:50;;;;;;;40.10;17.47;;;2.50;99.90;;;;;;5078085;28;20455;-56
2022/12/04 06:51:19;;;;;;;41.63;17.43;;;2.50;99.90;;;;;;5077769;28;20466;-59
2022/12/04 06:53:46;;;;;;;39.53;14.13;;;2.40;99.90;;;;;;5076928;28;20424;-58
2022/12/04 06:56:16;;;;;;;51.30;15.30;;;2.40;99.90;;;;;;5076659;28;20482;-60
2022/12/04 06:58:44;;;;;;;42.10;16.43;;;2.40;99.90;;;;;;5076349;28;20454;-59
2022/12/04 07:01:13;;;;;;;34.07;18.77;;;2.40;99.90;;;;;;5076480;28;20435;-60
2022/12/04 07:03:40;;;;;;;46.77;16.47;;;2.40;99.90;;;;;;5076793;28;20411;-60
2022/12/04 07:06:17;;;;;;;40.20;18.10;;;2.40;99.90;;;;;;5076454;28;20439;-57
2022/12/04 07:08:45;;;;;;;38.13;18.80;;;2.40;99.90;;;;;;5076387;28;20442;-60
2022/12/04 07:11:13;;;;;;;30.27;17.93;;;2.50;99.90;;;;;;5076629;28;20489;-60
2022/12/04 07:13:40;;;;;;;46.00;17.43;;;2.50;99.90;;;;;;5076178;28;20459;-52
2022/12/04 07:16:10;;;;;;;45.30;14.57;;;2.60;99.90;;;;;;5075611;28;20439;-61
2022/12/04 07:18:37;;;;;;;45.80;18.17;;;2.50;99.90;;;;;;5076700;28;20461;-53
2022/12/04 07:21:08;;;;;;;38.73;17.83;;;2.50;99.90;;;;;;5076402;28;21294;-60
2022/12/04 07:23:37;;;;;;;41.00;16.80;;;2.50;99.90;;;;;;5076559;28;20427;-59
2022/12/04 07:26:05;;;;;;;41.37;20.57;;;2.50;99.90;;;;;;5076586;28;20454;-58
2022/12/04 07:28:32;;;;;;;49.40;17.80;;;2.50;99.90;;;;;;5076259;28;20473;-59
2022/12/04 07:31:03;;;;;;;30.53;13.97;;;2.50;99.90;;;;;;5075286;28;20486;-56
2022/12/04 07:33:30;;;;;;;36.77;14.97;;;2.50;99.90;;;;;;5076213;28;20481;-61
2022/12/04 07:35:57;;;;;;;45.27;16.77;;;2.50;99.90;;;;;;5075978;28;20467;-60
2022/12/04 07:38:25;;;;;;;32.97;15.77;;;2.50;99.90;;;;;;5076169;28;20424;-57
2022/12/04 07:40:56;;;;;;;35.87;18.90;;;2.60;99.90;;;;;;5075915;28;20428;-57
2022/12/04 07:43:23;;;;;;;36.03;17.67;;;2.60;99.90;;;;;;5076120;28;20433;-57
2022/12/04 07:45:50;;;;;;;39.20;18.00;;;2.60;99.90;;;;;;5075876;28;20763;-58
2022/12/04 07:48:18;;;;;;;39.17;18.37;;;2.70;99.90;;;;;;5075625;28;20463;-58
2022/12/04 07:50:46;;;;;;;43.17;16.97;;;3.30;99.90;;;;;;5080119;28;20459;-59
2022/12/04 07:53:12;;;;;;;46.40;18.93;;;2.80;99.90;;;;;;5080120;28;20474;-61
2022/12/04 07:55:41;;;;;;;34.10;14.97;;;2.80;99.90;;;;;;5079677;28;20461;-59
2022/12/04 07:58:10;;;;;;;37.17;16.57;;;2.70;99.90;;;;;;5080217;28;20446;-57
2022/12/04 08:00:36;;;;;;;45.20;19.10;;;2.80;99.90;;;;;;5079499;28;20458;-59
2022/12/04 08:03:03;;;;;;;33.63;15.70;;;2.80;99.90;;;;;;5079298;28;20439;-54
2022/12/04 08:05:32;;;;;;;47.37;18.80;;;2.80;99.90;;;;;;5074360;28;20474;-59
2022/12/04 08:07:59;;;;;;;28.17;15.23;;;2.80;99.90;;;;;;5079613;28;20451;-58
2022/12/04 08:10:25;;;;;;;29.80;13.67;;;2.80;99.90;;;;;;5079588;28;20463;-54
2022/12/04 08:12:54;;;;;;;34.07;19.03;;;2.80;99.90;;;;;;5079406;28;20443;-59
2022/12/04 08:15:23;;;;;;;37.07;18.90;;;2.80;99.90;;;;;;5078570;28;20465;-60
2022/12/04 08:17:49;;;;;;;40.53;16.10;;;2.80;99.90;;;;;;5077953;28;20438;-57
2022/12/04 08:20:16;;;;;;;43.97;18.33;;;2.80;99.90;;;;;;5079871;28;20479;-59
2022/12/04 08:22:43;;;;;;;42.10;20.07;;;2.80;99.90;;;;;;5077120;28;20458;-60
2022/12/04 08:25:15;;;;;;;42.23;13.77;;;2.90;99.90;;;;;;5078819;28;20474;-58
2022/12/04 08:27:45;;;;;;;34.77;15.50;;;2.90;99.90;;;;;;5078853;28;20467;-59
2022/12/04 08:30:13;;;;;;;39.90;16.80;;;2.90;99.90;;;;;;5079419;28;20454;-58
2022/12/04 08:32:41;;;;;;;45.67;17.43;;;2.90;99.90;;;;;;5079545;28;20482;-59
2022/12/04 08:35:09;;;;;;;42.80;19.03;;;2.90;99.90;;;;;;5073044;28;20434;-56
2022/12/04 08:37:36;;;;;;;35.87;17.30;;;3.00;99.90;;;;;;5079426;28;20444;-59
2022/12/04 08:40:03;;;;;;;42.77;17.77;;;2.90;99.90;;;;;;5079133;28;20438;-57
2022/12/04 08:42:30;;;;;;;36.03;18.50;;;3.00;99.90;;;;;;5078829;28;20443;-59
2022/12/04 08:44:57;;;;;;;39.80;15.63;;;3.00;99.90;;;;;;5078428;28;20478;-58
2022/12/04 08:47:27;;;;;;;37.80;14.67;;;3.00;99.90;;;;;;5078970;28;20427;-59
2022/12/04 08:49:58;;;;;;;31.00;14.53;;;2.90;99.90;;;;;;5078636;28;20451;-59
2022/12/04 08:52:25;;;;;;;33.30;12.90;;;2.90;99.90;;;;;;5078687;28;20454;-61
2022/12/04 08:54:52;;;;;;;37.57;17.70;;;2.90;99.90;;;;;;5076649;28;20450;-60
2022/12/04 08:57:19;;;;;;;30.83;15.60;;;2.90;99.90;;;;;;5079497;28;20439;-59
2022/12/04 08:59:46;;;;;;;43.37;19.87;;;2.90;99.90;;;;;;5075198;28;20446;-55
2022/12/04 09:02:12;;;;;;;47.23;13.67;;;3.00;99.90;;;;;;5078848;28;20463;-60
2022/12/04 09:04:39;;;;;;;34.90;17.03;;;3.00;99.90;;;;;;5077314;28;20440;-59
2022/12/04 09:07:08;;;;;;;32.47;15.43;;;3.00;99.90;;;;;;5074112;28;20471;-57
2022/12/04 09:09:35;;;;;;;42.27;16.77;;;3.00;99.90;;;;;;5079970;28;20452;-58
2022/12/04 09:12:02;;;;;;;32.77;16.17;;;3.10;99.90;;;;;;5080050;28;20459;-58
2022/12/04 09:14:29;;;;;;;45.30;15.77;;;3.10;99.90;;;;;;5071820;28;20444;-63
2022/12/04 09:16:56;;;;;;;37.03;15.03;;;3.10;99.90;;;;;;5080372;28;20474;-59
2022/12/04 09:19:23;;;;;;;37.67;16.60;;;3.20;99.90;;;;;;5080377;28;20451;-60
2022/12/04 09:21:49;;;;;;;38.20;16.63;;;3.20;99.90;;;;;;5079195;28;20444;-60
2022/12/04 09:24:18;;;;;;;35.77;14.43;;;3.10;99.90;;;;;;5071931;28;20459;-52
2022/12/04 09:26:45;;;;;;;34.17;16.60;;;3.10;99.90;;;;;;5078974;28;20415;-54
2022/12/04 09:29:12;;;;;;;32.10;14.90;;;3.10;99.90;;;;;;5078458;28;20452;-53
2022/12/04 09:31:38;;;;;;;53.60;17.07;;;3.10;99.90;;;;;;5079241;28;20475;-56
2022/12/04 09:34:05;;;;;;;31.47;13.53;;;3.10;99.90;;;;;;5079399;28;20467;-52
2022/12/04 09:36:32;;;;;;;49.03;16.67;;;3.10;99.90;;;;;;5079675;28;20497;-54
2022/12/04 09:38:59;;;;;;;27.47;14.43;;;3.10;99.90;;;;;;5079279;28;20439;-50
2022/12/04 09:41:55;;;;;;;38.00;15.13;;;3.10;99.90;;;;;;5079239;28;20439;-52
2022/12/04 09:44:27;;;;;;;35.47;13.70;;;3.20;99.90;;;;;;5078487;28;20457;-61
2022/12/04 09:47:00;;;;;;;34.83;15.43;;;3.10;99.90;;;;;;5076887;28;20424;-61
2022/12/04 09:49:34;;;;;;;44.90;15.93;;;3.20;99.90;;;;;;5078713;28;20416;-58
2022/12/04 09:52:06;;;;;;;37.10;16.73;;;3.20;99.90;;;;;;5078061;28;20463;-62
2022/12/04 09:54:39;;;;;;;33.23;16.40;;;3.20;99.90;;;;;;5077596;28;20462;-64
2022/12/04 09:57:15;;;;;;;39.77;15.10;;;3.20;99.90;;;;;;5071042;28;20426;-61
2022/12/04 09:59:44;;;;;;;32.10;14.83;;;3.10;99.90;;;;;;5077822;28;20454;-60
2022/12/04 10:02:28;;;;;;;48.97;21.13;;;3.20;99.90;;;;;;5069920;28;20820;-56
2022/12/04 10:04:56;;;;;;;30.60;15.80;;;3.20;99.90;;;;;;5071010;28;20439;-63
2022/12/04 10:07:28;;;;;;;36.47;18.30;;;3.20;99.90;;;;;;5077331;28;20892;-59
2022/12/04 10:10:01;;;;;;;45.80;17.77;;;3.30;99.90;;;;;;5077251;28;20423;-60
2022/12/04 10:12:36;;;;;;;34.80;14.47;;;3.20;99.90;;;;;;5076955;28;20487;-59
2022/12/04 10:15:23;;;;;;;32.13;15.17;;;3.30;99.90;;;;;;5076764;28;20435;-61
2022/12/04 10:18:09;;;;;;;37.27;16.80;;;3.30;99.90;;;;;;5077162;28;20450;-61
2022/12/04 10:20:54;;;;;;;25.97;15.23;;;3.30;99.90;;;;;;5077320;28;20523;-61
2022/12/04 10:23:33;;;;;;;35.80;15.47;;;3.30;99.90;;;;;;5077325;28;20411;-61
2022/12/04 10:26:01;;;;;;;27.57;13.33;;;3.30;99.90;;;;;;5076936;28;20423;-61
2022/12/04 10:28:33;;;;;;;37.80;16.67;;;3.30;99.90;;;;;;5076849;28;20443;-62
2022/12/04 10:31:02;;;;;;;36.20;16.50;;;3.30;99.90;;;;;;5077139;28;20407;-61
2022/12/04 10:33:36;;;;;;;31.33;13.90;;;3.30;99.90;;;;;;5076384;28;20498;-57
2022/12/04 10:36:04;;;;;;;31.63;18.10;;;3.30;99.90;;;;;;5076818;28;20411;-60
2022/12/04 10:38:39;;;;;;;50.20;16.47;;;3.40;99.90;;;;;;5076336;28;20440;-61
2022/12/04 10:41:14;;;;;;;40.90;16.33;;;3.30;99.90;;;;;;5076333;28;20432;-54
2022/12/04 10:43:44;;;;;;;29.23;12.97;;;3.30;99.90;;;;;;5076767;28;20482;-57
2022/12/04 10:46:14;;;;;;;46.97;14.83;;;3.40;99.90;;;;;;5076495;28;20419;-60
2022/12/04 10:48:42;;;;;;;34.37;16.73;;;3.40;99.90;;;;;;5076999;28;20468;-59
2022/12/04 10:51:14;;;;;;;33.20;15.53;;;3.40;99.90;;;;;;5076425;28;20454;-58
2022/12/04 10:53:43;;;;;;;39.27;18.00;;;3.40;99.90;;;;;;5068247;28;20438;-58
2022/12/04 10:56:12;;;;;;;28.80;15.90;;;3.40;99.90;;;;;;5077172;28;20430;-61
2022/12/04 10:58:39;;;;;;;40.43;19.90;;;3.40;99.90;;;;;;5076393;28;20447;-57
2022/12/04 11:01:10;;;;;;;43.50;14.90;;;3.40;99.90;;;;;;5075570;28;20469;-60
2022/12/04 11:03:37;;;;;;;36.50;14.83;;;3.50;99.90;;;;;;5068874;28;20760;-60
2022/12/04 11:06:06;;;;;;;36.77;14.60;;;3.50;99.90;;;;;;5076015;28;20858;-60
2022/12/04 11:08:37;;;;;;;36.70;16.67;;;3.50;99.90;;;;;;5076416;28;20443;-53
2022/12/04 11:11:07;;;;;;;34.30;15.73;;;3.50;99.90;;;;;;5071686;28;20446;-60
2022/12/04 11:13:34;;;;;;;45.00;17.47;;;3.50;99.90;;;;;;5075552;28;20466;-58
2022/12/04 11:16:01;;;;;;;33.33;14.83;;;3.50;99.90;;;;;;5076552;28;20426;-59
2022/12/04 11:18:31;;;;;;;32.40;14.20;;;3.60;99.90;;;;;;5076339;28;20459;-60
2022/12/04 11:21:01;;;;;;;37.17;12.70;;;3.60;99.90;;;;;;5076050;28;20807;-60
2022/12/04 11:23:32;;;;;;;23.90;15.10;;;3.60;99.90;;;;;;5074590;28;20468;-57
2022/12/04 11:26:02;;;;;;;28.30;15.50;;;3.60;99.90;;;;;;5075303;28;20447;-53
2022/12/04 11:28:31;;;;;;;26.60;14.60;;;3.60;99.90;;;;;;5075546;28;20467;-62
2022/12/04 11:31:00;;;;;;;36.30;17.57;;;3.60;99.90;;;;;;5075936;28;20906;-55
2022/12/04 11:33:34;;;;;;;24.67;12.50;;;3.60;99.90;;;;;;5076048;28;20497;-57
2022/12/04 11:36:06;;;;;;;42.43;14.50;;;3.60;99.90;;;;;;5076202;28;20447;-60
2022/12/04 11:38:35;;;;;;;35.43;17.00;;;3.60;99.90;;;;;;5076707;28;20443;-56
2022/12/04 11:41:03;;;;;;;34.30;17.00;;;3.60;99.90;;;;;;5076526;28;20470;-56
2022/12/04 11:43:31;;;;;;;39.50;16.50;;;3.50;99.90;;;;;;5076114;28;20466;-57
2022/12/04 11:46:00;;;;;;;26.20;14.77;;;3.60;99.90;;;;;;5076197;28;20480;-59
2022/12/04 11:48:29;;;;;;;44.00;17.10;;;3.60;99.90;;;;;;5076102;28;20439;-59
2022/12/04 11:51:06;;;;;;;29.50;12.00;;;3.60;99.90;;;;;;5076673;28;20443;-63
2022/12/04 11:53:43;;;;;;;24.07;11.00;;;3.60;99.90;;;;;;5076191;28;20501;-57
2022/12/04 11:56:20;;;;;;;21.90;11.97;;;3.60;99.90;;;;;;5076014;28;20491;-60
2022/12/04 11:59:24;;;;;;;31.30;13.57;;;3.60;99.90;;;;;;5074658;28;20512;-58
2022/12/04 12:01:58;;;;;;;23.33;13.50;;;3.60;99.90;;;;;;5060648;28;20435;-61
2022/12/04 12:04:52;;;;;;;36.57;13.07;;;3.60;99.90;;;;;;5068329;28;20442;-60
2022/12/04 12:07:34;;;;;;;24.10;13.13;;;3.50;99.90;;;;;;5075426;28;20428;-57
2022/12/04 12:10:06;;;;;;;28.10;14.53;;;3.60;99.90;;;;;;5075144;28;20459;-56
2022/12/04 12:12:45;;;;;;;33.50;15.40;;;3.60;99.90;;;;;;5075343;28;20490;-56
2022/12/04 12:15:23;;;;;;;41.13;15.80;;;3.60;99.90;;;;;;5075272;28;20438;-58
2022/12/04 12:17:59;;;;;;;26.60;14.60;;;3.70;99.90;;;;;;5075115;28;20425;-56
2022/12/04 12:20:32;;;;;;;35.07;15.73;;;3.70;99.90;;;;;;5073024;28;20411;-58
2022/12/04 12:23:22;;;;;;;29.80;14.47;;;3.70;99.90;;;;;;5068704;28;20462;-59
2022/12/04 12:26:01;;;;;;;42.73;16.03;;;3.70;99.90;;;;;;5074721;28;20442;-55
2022/12/04 12:28:44;;;;;;;30.90;12.53;;;3.80;99.90;;;;;;5075007;28;20467;-59
2022/12/04 12:31:34;;;;;;;34.50;13.73;;;3.70;99.90;;;;;;5071117;28;20458;-59
2022/12/04 12:34:05;;;;;;;39.70;15.60;;;3.80;99.90;;;;;;5074678;28;20474;-55
2022/12/04 12:36:36;;;;;;;36.43;14.37;;;3.80;99.90;;;;;;5078345;28;20526;-60
2022/12/04 12:39:11;;;;;;;29.43;13.57;;;3.80;99.90;;;;;;5078136;28;20496;-57
2022/12/04 12:41:43;;;;;;;32.00;14.80;;;3.80;99.90;;;;;;5078733;28;20423;-58
2022/12/04 12:44:15;;;;;;;35.03;13.60;;;3.80;99.90;;;;;;5078451;28;20427;-61
2022/12/04 12:46:50;;;;;;;29.47;12.43;;;3.70;99.90;;;;;;5078088;28;20436;-56
2022/12/04 12:49:21;;;;;;;27.07;14.77;;;3.70;99.90;;;;;;5077999;28;20427;-57
2022/12/04 12:51:55;;;;;;;26.30;13.57;;;3.60;99.90;;;;;;5078501;28;20496;-55
2022/12/04 12:54:39;;;;;;;31.57;13.50;;;3.70;99.90;;;;;;5078234;28;20434;-61
2022/12/04 12:57:12;;;;;;;34.10;16.27;;;3.70;99.90;;;;;;5078282;28;20475;-60
2022/12/04 12:59:45;;;;;;;37.67;19.53;;;3.60;99.90;;;;;;5078719;28;20423;-60
2022/12/04 13:02:20;;;;;;;33.73;15.23;;;3.70;99.90;;;;;;5078411;28;20478;-55
2022/12/04 13:04:51;;;;;;;24.83;11.93;;;3.70;99.90;;;;;;5078273;28;20458;-59
2022/12/04 13:07:29;;;;;;;25.20;14.07;;;3.70;99.90;;;;;;5078145;28;20486;-59
2022/12/04 13:10:07;;;;;;;34.73;15.87;;;3.70;99.90;;;;;;5078769;28;20448;-58
2022/12/04 13:12:43;;;;;;;28.20;13.80;;;3.70;99.90;;;;;;5078192;28;20516;-58
2022/12/04 13:15:14;;;;;;;32.20;16.93;;;3.70;99.90;;;;;;5078414;28;20454;-56
2022/12/04 13:17:43;;;;;;;38.73;17.00;;;3.70;99.90;;;;;;5078389;28;20408;-59